sensor_id;sensor_type;location;lat;lon;timestamp;P1;durP1;ratioP1;P2;durP2;ratioP2
81799;SDS011;71195;52.528;5.704;2023-07-31T00:00:47;0.68;;;0.00;;
81799;SDS011;71195;52.528;5.704;2023-07-31T00:03:16;0.82;;;0.10;;
81799;SDS011;71195;52.528;5.704;2023-07-31T00:05:45;0.90;;;0.05;;
81799;SDS011;71195;52.528;5.704;2023-07-31T00:08:17;0.32;;;0.15;;
81799;SDS011;71195;52.528;5.704;2023-07-31T00:10:46;1.58;;;0.10;;
81799;SDS011;71195;52.528;5.704;2023-07-31T00:13:16;1.52;;;0.03;;
81799;SDS011;71195;52.528;5.704;2023-07-31T00:15:45;0.68;;;0.10;;
81799;SDS011;71195;52.528;5.704;2023-07-31T00:18:14;0.57;;;0.20;;
81799;SDS011;71195;52.528;5.704;2023-07-31T00:20:43;0.55;;;0.03;;
81799;SDS011;71195;52.528;5.704;2023-07-31T00:23:12;1.05;;;0.20;;
81799;SDS011;71195;52.528;5.704;2023-07-31T00:25:44;0.77;;;0.13;;
81799;SDS011;71195;52.528;5.704;2023-07-31T00:28:13;1.85;;;0.30;;
81799;SDS011;71195;52.528;5.704;2023-07-31T00:30:43;1.05;;;0.25;;
81799;SDS011;71195;52.528;5.704;2023-07-31T00:33:12;0.47;;;0.10;;
81799;SDS011;71195;52.528;5.704;2023-07-31T00:35:41;0.95;;;0.10;;
81799;SDS011;71195;52.528;5.704;2023-07-31T00:38:10;0.65;;;0.13;;
81799;SDS011;71195;52.528;5.704;2023-07-31T00:40:40;1.50;;;0.10;;
81799;SDS011;71195;52.528;5.704;2023-07-31T00:43:11;0.40;;;0.10;;
81799;SDS011;71195;52.528;5.704;2023-07-31T00:45:40;0.80;;;0.20;;
81799;SDS011;71195;52.528;5.704;2023-07-31T00:48:11;0.80;;;0.17;;
81799;SDS011;71195;52.528;5.704;2023-07-31T00:50:40;0.57;;;0.13;;
81799;SDS011;71195;52.528;5.704;2023-07-31T00:53:10;0.80;;;0.13;;
81799;SDS011;71195;52.528;5.704;2023-07-31T00:55:39;2.25;;;0.30;;
81799;SDS011;71195;52.528;5.704;2023-07-31T00:58:08;1.00;;;0.25;;
81799;SDS011;71195;52.528;5.704;2023-07-31T01:00:40;1.10;;;0.20;;
81799;SDS011;71195;52.528;5.704;2023-07-31T01:03:09;0.98;;;0.10;;
81799;SDS011;71195;52.528;5.704;2023-07-31T01:05:41;1.15;;;0.30;;
81799;SDS011;71195;52.528;5.704;2023-07-31T01:08:23;0.63;;;0.10;;
81799;SDS011;71195;52.528;5.704;2023-07-31T01:11:00;0.55;;;0.20;;
81799;SDS011;71195;52.528;5.704;2023-07-31T01:13:38;0.80;;;0.20;;
81799;SDS011;71195;52.528;5.704;2023-07-31T01:16:08;0.40;;;0.10;;
81799;SDS011;71195;52.528;5.704;2023-07-31T01:18:37;3.90;;;0.38;;
81799;SDS011;71195;52.528;5.704;2023-07-31T01:21:17;1.25;;;0.20;;
81799;SDS011;71195;52.528;5.704;2023-07-31T01:29:23;2.70;;;0.28;;
81799;SDS011;71195;52.528;5.704;2023-07-31T01:32:01;1.85;;;0.20;;
81799;SDS011;71195;52.528;5.704;2023-07-31T01:34:31;1.30;;;0.20;;
81799;SDS011;71195;52.528;5.704;2023-07-31T01:37:02;2.13;;;0.60;;
81799;SDS011;71195;52.528;5.704;2023-07-31T01:39:31;3.40;;;0.50;;
81799;SDS011;71195;52.528;5.704;2023-07-31T01:42:03;3.38;;;0.32;;
81799;SDS011;71195;52.528;5.704;2023-07-31T01:44:33;1.90;;;0.22;;
81799;SDS011;71195;52.528;5.704;2023-07-31T01:47:04;2.72;;;0.32;;
81799;SDS011;71195;52.528;5.704;2023-07-31T01:49:34;2.70;;;0.43;;
81799;SDS011;71195;52.528;5.704;2023-07-31T01:52:03;2.15;;;0.55;;
81799;SDS011;71195;52.528;5.704;2023-07-31T01:54:34;4.90;;;1.27;;
81799;SDS011;71195;52.528;5.704;2023-07-31T01:57:06;1.70;;;0.43;;
81799;SDS011;71195;52.528;5.704;2023-07-31T01:59:35;6.07;;;0.85;;
81799;SDS011;71195;52.528;5.704;2023-07-31T02:02:05;5.13;;;0.55;;
81799;SDS011;71195;52.528;5.704;2023-07-31T02:04:34;6.25;;;0.75;;
81799;SDS011;71195;52.528;5.704;2023-07-31T02:07:04;2.72;;;0.40;;
81799;SDS011;71195;52.528;5.704;2023-07-31T02:09:34;3.45;;;1.08;;
81799;SDS011;71195;52.528;5.704;2023-07-31T02:12:06;1.98;;;0.45;;
81799;SDS011;71195;52.528;5.704;2023-07-31T02:14:37;2.42;;;0.32;;
81799;SDS011;71195;52.528;5.704;2023-07-31T02:17:06;2.88;;;0.40;;
81799;SDS011;71195;52.528;5.704;2023-07-31T02:19:35;1.15;;;0.40;;
81799;SDS011;71195;52.528;5.704;2023-07-31T02:22:04;4.80;;;0.77;;
81799;SDS011;71195;52.528;5.704;2023-07-31T02:24:34;5.20;;;0.60;;
81799;SDS011;71195;52.528;5.704;2023-07-31T02:27:06;5.30;;;0.60;;
81799;SDS011;71195;52.528;5.704;2023-07-31T02:29:35;3.47;;;0.90;;
81799;SDS011;71195;52.528;5.704;2023-07-31T02:32:04;3.47;;;0.57;;
81799;SDS011;71195;52.528;5.704;2023-07-31T02:34:35;2.30;;;0.40;;
81799;SDS011;71195;52.528;5.704;2023-07-31T02:37:05;2.67;;;0.77;;
81799;SDS011;71195;52.528;5.704;2023-07-31T02:39:34;2.92;;;0.68;;
81799;SDS011;71195;52.528;5.704;2023-07-31T02:42:07;4.85;;;0.50;;
81799;SDS011;71195;52.528;5.704;2023-07-31T02:44:36;1.85;;;0.60;;
81799;SDS011;71195;52.528;5.704;2023-07-31T02:47:06;3.42;;;0.32;;
81799;SDS011;71195;52.528;5.704;2023-07-31T02:49:35;5.30;;;0.52;;
81799;SDS011;71195;52.528;5.704;2023-07-31T02:52:04;1.58;;;0.60;;
81799;SDS011;71195;52.528;5.704;2023-07-31T02:54:34;4.70;;;0.80;;
81799;SDS011;71195;52.528;5.704;2023-07-31T02:57:03;5.90;;;0.73;;
81799;SDS011;71195;52.528;5.704;2023-07-31T02:59:35;6.50;;;1.13;;
81799;SDS011;71195;52.528;5.704;2023-07-31T03:02:05;6.90;;;1.52;;
81799;SDS011;71195;52.528;5.704;2023-07-31T03:04:34;6.15;;;1.40;;
81799;SDS011;71195;52.528;5.704;2023-07-31T03:07:03;9.40;;;2.28;;
81799;SDS011;71195;52.528;5.704;2023-07-31T03:09:33;5.22;;;1.40;;
81799;SDS011;71195;52.528;5.704;2023-07-31T03:12:02;12.55;;;2.03;;
81799;SDS011;71195;52.528;5.704;2023-07-31T03:14:35;7.85;;;1.50;;
81799;SDS011;71195;52.528;5.704;2023-07-31T03:17:04;10.68;;;1.77;;
81799;SDS011;71195;52.528;5.704;2023-07-31T03:19:34;6.90;;;1.45;;
81799;SDS011;71195;52.528;5.704;2023-07-31T03:22:03;10.25;;;1.70;;
81799;SDS011;71195;52.528;5.704;2023-07-31T03:24:33;7.43;;;1.35;;
81799;SDS011;71195;52.528;5.704;2023-07-31T03:27:03;6.75;;;1.27;;
81799;SDS011;71195;52.528;5.704;2023-07-31T03:29:35;6.88;;;1.75;;
81799;SDS011;71195;52.528;5.704;2023-07-31T03:32:05;10.55;;;2.30;;
81799;SDS011;71195;52.528;5.704;2023-07-31T03:34:35;7.32;;;1.58;;
81799;SDS011;71195;52.528;5.704;2023-07-31T03:37:05;5.72;;;1.63;;
81799;SDS011;71195;52.528;5.704;2023-07-31T03:39:35;10.10;;;1.38;;
81799;SDS011;71195;52.528;5.704;2023-07-31T03:42:04;11.50;;;2.17;;
81799;SDS011;71195;52.528;5.704;2023-07-31T03:44:37;7.03;;;1.67;;
81799;SDS011;71195;52.528;5.704;2023-07-31T03:47:06;10.93;;;1.67;;
81799;SDS011;71195;52.528;5.704;2023-07-31T03:49:37;5.45;;;1.05;;
81799;SDS011;71195;52.528;5.704;2023-07-31T03:52:06;10.63;;;2.22;;
81799;SDS011;71195;52.528;5.704;2023-07-31T03:54:36;9.00;;;2.60;;
81799;SDS011;71195;52.528;5.704;2023-07-31T03:57:05;8.55;;;1.73;;
81799;SDS011;71195;52.528;5.704;2023-07-31T03:59:37;9.05;;;2.20;;
81799;SDS011;71195;52.528;5.704;2023-07-31T04:02:06;8.48;;;2.47;;
81799;SDS011;71195;52.528;5.704;2023-07-31T04:04:36;10.50;;;1.75;;
81799;SDS011;71195;52.528;5.704;2023-07-31T04:07:05;9.02;;;2.47;;
81799;SDS011;71195;52.528;5.704;2023-07-31T04:09:34;5.82;;;1.30;;
81799;SDS011;71195;52.528;5.704;2023-07-31T04:12:03;11.73;;;3.00;;
81799;SDS011;71195;52.528;5.704;2023-07-31T04:14:33;7.70;;;1.95;;
81799;SDS011;71195;52.528;5.704;2023-07-31T04:17:05;12.85;;;2.35;;
81799;SDS011;71195;52.528;5.704;2023-07-31T04:22:03;10.82;;;1.92;;
81799;SDS011;71195;52.528;5.704;2023-07-31T04:24:32;11.15;;;2.10;;
81799;SDS011;71195;52.528;5.704;2023-07-31T04:27:02;11.13;;;2.45;;
81799;SDS011;71195;52.528;5.704;2023-07-31T04:29:31;11.20;;;2.08;;
81799;SDS011;71195;52.528;5.704;2023-07-31T04:32:00;9.60;;;1.85;;
81799;SDS011;71195;52.528;5.704;2023-07-31T04:34:32;9.00;;;1.98;;
81799;SDS011;71195;52.528;5.704;2023-07-31T04:37:02;6.97;;;1.75;;
81799;SDS011;71195;52.528;5.704;2023-07-31T04:39:31;7.40;;;1.23;;
81799;SDS011;71195;52.528;5.704;2023-07-31T04:42:00;13.60;;;2.08;;
81799;SDS011;71195;52.528;5.704;2023-07-31T04:44:30;9.70;;;2.45;;
81799;SDS011;71195;52.528;5.704;2023-07-31T04:46:59;10.02;;;2.13;;
81799;SDS011;71195;52.528;5.704;2023-07-31T04:49:28;8.40;;;1.40;;
81799;SDS011;71195;52.528;5.704;2023-07-31T04:52:00;13.88;;;2.53;;
81799;SDS011;71195;52.528;5.704;2023-07-31T04:54:29;11.90;;;2.20;;
81799;SDS011;71195;52.528;5.704;2023-07-31T04:56:58;14.60;;;2.03;;
81799;SDS011;71195;52.528;5.704;2023-07-31T04:59:27;12.27;;;2.33;;
81799;SDS011;71195;52.528;5.704;2023-07-31T05:01:57;13.27;;;2.00;;
81799;SDS011;71195;52.528;5.704;2023-07-31T05:04:26;12.98;;;2.10;;
81799;SDS011;71195;52.528;5.704;2023-07-31T05:06:55;9.00;;;1.75;;
81799;SDS011;71195;52.528;5.704;2023-07-31T05:09:27;13.40;;;1.90;;
81799;SDS011;71195;52.528;5.704;2023-07-31T05:11:56;8.98;;;1.83;;
81799;SDS011;71195;52.528;5.704;2023-07-31T05:14:25;7.32;;;2.13;;
81799;SDS011;71195;52.528;5.704;2023-07-31T05:16:55;8.77;;;2.00;;
81799;SDS011;71195;52.528;5.704;2023-07-31T05:19:24;9.30;;;1.55;;
81799;SDS011;71195;52.528;5.704;2023-07-31T05:21:53;8.27;;;2.28;;
81799;SDS011;71195;52.528;5.704;2023-07-31T05:24:22;9.65;;;1.75;;
81799;SDS011;71195;52.528;5.704;2023-07-31T05:26:54;11.70;;;2.17;;
81799;SDS011;71195;52.528;5.704;2023-07-31T05:29:23;5.97;;;1.80;;
81799;SDS011;71195;52.528;5.704;2023-07-31T05:31:52;8.85;;;1.77;;
81799;SDS011;71195;52.528;5.704;2023-07-31T05:34:21;9.48;;;2.67;;
81799;SDS011;71195;52.528;5.704;2023-07-31T05:36:51;8.90;;;2.15;;
81799;SDS011;71195;52.528;5.704;2023-07-31T05:39:20;10.70;;;2.30;;
81799;SDS011;71195;52.528;5.704;2023-07-31T05:41:49;10.35;;;2.50;;
81799;SDS011;71195;52.528;5.704;2023-07-31T05:44:21;10.60;;;2.72;;
81799;SDS011;71195;52.528;5.704;2023-07-31T05:46:50;9.18;;;1.80;;
81799;SDS011;71195;52.528;5.704;2023-07-31T05:49:19;6.50;;;2.28;;
81799;SDS011;71195;52.528;5.704;2023-07-31T05:51:49;6.03;;;1.80;;
81799;SDS011;71195;52.528;5.704;2023-07-31T05:54:18;8.02;;;1.95;;
81799;SDS011;71195;52.528;5.704;2023-07-31T05:56:47;6.35;;;1.52;;
81799;SDS011;71195;52.528;5.704;2023-07-31T05:59:16;7.63;;;1.85;;
81799;SDS011;71195;52.528;5.704;2023-07-31T06:01:48;4.93;;;1.40;;
81799;SDS011;71195;52.528;5.704;2023-07-31T06:04:17;6.25;;;1.30;;
81799;SDS011;71195;52.528;5.704;2023-07-31T06:06:46;3.60;;;0.65;;
81799;SDS011;71195;52.528;5.704;2023-07-31T06:09:15;4.10;;;0.82;;
81799;SDS011;71195;52.528;5.704;2023-07-31T06:11:45;2.95;;;0.50;;
81799;SDS011;71195;52.528;5.704;2023-07-31T06:14:14;1.63;;;0.30;;
81799;SDS011;71195;52.528;5.704;2023-07-31T06:16:43;2.55;;;0.82;;
81799;SDS011;71195;52.528;5.704;2023-07-31T06:19:15;2.15;;;0.47;;
81799;SDS011;71195;52.528;5.704;2023-07-31T06:21:45;4.43;;;0.45;;
81799;SDS011;71195;52.528;5.704;2023-07-31T06:24:15;2.55;;;0.60;;
81799;SDS011;71195;52.528;5.704;2023-07-31T06:26:46;2.90;;;0.80;;
81799;SDS011;71195;52.528;5.704;2023-07-31T06:29:16;3.10;;;0.30;;
81799;SDS011;71195;52.528;5.704;2023-07-31T06:31:45;4.30;;;1.00;;
81799;SDS011;71195;52.528;5.704;2023-07-31T06:34:17;2.25;;;0.32;;
81799;SDS011;71195;52.528;5.704;2023-07-31T06:36:46;1.70;;;0.43;;
81799;SDS011;71195;52.528;5.704;2023-07-31T06:39:15;2.88;;;0.38;;
81799;SDS011;71195;52.528;5.704;2023-07-31T06:41:44;2.13;;;0.52;;
81799;SDS011;71195;52.528;5.704;2023-07-31T06:44:14;4.05;;;0.35;;
81799;SDS011;71195;52.528;5.704;2023-07-31T06:46:43;1.75;;;0.65;;
81799;SDS011;71195;52.528;5.704;2023-07-31T06:49:12;1.75;;;0.35;;
81799;SDS011;71195;52.528;5.704;2023-07-31T06:51:44;1.70;;;0.32;;
81799;SDS011;71195;52.528;5.704;2023-07-31T06:54:14;3.05;;;0.30;;
81799;SDS011;71195;52.528;5.704;2023-07-31T06:56:43;2.55;;;0.52;;
81799;SDS011;71195;52.528;5.704;2023-07-31T06:59:12;1.67;;;0.30;;
81799;SDS011;71195;52.528;5.704;2023-07-31T07:01:41;2.10;;;0.70;;
81799;SDS011;71195;52.528;5.704;2023-07-31T07:04:10;1.00;;;0.20;;
81799;SDS011;71195;52.528;5.704;2023-07-31T07:06:40;2.17;;;0.20;;
81799;SDS011;71195;52.528;5.704;2023-07-31T07:09:11;1.67;;;0.40;;
81799;SDS011;71195;52.528;5.704;2023-07-31T07:11:41;2.50;;;0.30;;
81799;SDS011;71195;52.528;5.704;2023-07-31T07:14:10;2.50;;;0.32;;
81799;SDS011;71195;52.528;5.704;2023-07-31T07:16:39;0.82;;;0.10;;
81799;SDS011;71195;52.528;5.704;2023-07-31T07:19:08;2.58;;;0.30;;
81799;SDS011;71195;52.528;5.704;2023-07-31T07:21:37;1.17;;;0.50;;
81799;SDS011;71195;52.528;5.704;2023-07-31T07:24:07;0.60;;;0.20;;
81799;SDS011;71195;52.528;5.704;2023-07-31T07:26:38;1.13;;;0.20;;
81799;SDS011;71195;52.528;5.704;2023-07-31T07:29:08;4.03;;;0.50;;
81799;SDS011;71195;52.528;5.704;2023-07-31T07:31:37;2.22;;;0.50;;
81799;SDS011;71195;52.528;5.704;2023-07-31T07:34:06;0.80;;;0.20;;
81799;SDS011;71195;52.528;5.704;2023-07-31T07:36:35;2.10;;;0.20;;
81799;SDS011;71195;52.528;5.704;2023-07-31T07:39:04;1.95;;;0.40;;
81799;SDS011;71195;52.528;5.704;2023-07-31T07:41:33;2.20;;;0.40;;
81799;SDS011;71195;52.528;5.704;2023-07-31T07:44:05;2.08;;;0.52;;
81799;SDS011;71195;52.528;5.704;2023-07-31T07:46:34;1.70;;;0.20;;
81799;SDS011;71195;52.528;5.704;2023-07-31T07:49:04;1.40;;;0.30;;
81799;SDS011;71195;52.528;5.704;2023-07-31T07:51:33;1.50;;;0.13;;
81799;SDS011;71195;52.528;5.704;2023-07-31T07:54:02;0.52;;;0.20;;
81799;SDS011;71195;52.528;5.704;2023-07-31T07:56:32;2.83;;;0.30;;
81799;SDS011;71195;52.528;5.704;2023-07-31T07:59:02;0.47;;;0.10;;
81799;SDS011;71195;52.528;5.704;2023-07-31T08:01:33;1.23;;;0.20;;
81799;SDS011;71195;52.528;5.704;2023-07-31T08:04:03;0.45;;;0.10;;
81799;SDS011;71195;52.528;5.704;2023-07-31T08:06:32;0.50;;;0.10;;
81799;SDS011;71195;52.528;5.704;2023-07-31T08:09:01;0.88;;;0.20;;
81799;SDS011;71195;52.528;5.704;2023-07-31T08:11:32;0.82;;;0.20;;
81799;SDS011;71195;52.528;5.704;2023-07-31T08:14:01;0.40;;;0.03;;
81799;SDS011;71195;52.528;5.704;2023-07-31T08:16:33;0.77;;;0.20;;
81799;SDS011;71195;52.528;5.704;2023-07-31T08:19:02;1.25;;;0.10;;
81799;SDS011;71195;52.528;5.704;2023-07-31T08:21:31;0.70;;;0.17;;
81799;SDS011;71195;52.528;5.704;2023-07-31T08:24:01;2.15;;;0.20;;
81799;SDS011;71195;52.528;5.704;2023-07-31T08:26:30;0.40;;;0.10;;
81799;SDS011;71195;52.528;5.704;2023-07-31T08:28:59;2.03;;;0.13;;
81799;SDS011;71195;52.528;5.704;2023-07-31T08:31:31;0.15;;;0.00;;
81799;SDS011;71195;52.528;5.704;2023-07-31T08:34:00;0.38;;;0.00;;
81799;SDS011;71195;52.528;5.704;2023-07-31T08:36:30;0.68;;;0.10;;
81799;SDS011;71195;52.528;5.704;2023-07-31T08:38:59;0.60;;;0.05;;
81799;SDS011;71195;52.528;5.704;2023-07-31T08:41:29;0.55;;;0.00;;
81799;SDS011;71195;52.528;5.704;2023-07-31T08:46:33;0.50;;;0.08;;
81799;SDS011;71195;52.528;5.704;2023-07-31T08:49:04;0.25;;;0.05;;
81799;SDS011;71195;52.528;5.704;2023-07-31T08:51:34;1.38;;;0.00;;
81799;SDS011;71195;52.528;5.704;2023-07-31T08:54:04;1.05;;;0.20;;
81799;SDS011;71195;52.528;5.704;2023-07-31T08:56:33;0.10;;;0.00;;
81799;SDS011;71195;52.528;5.704;2023-07-31T08:59:04;0.82;;;0.10;;
81799;SDS011;71195;52.528;5.704;2023-07-31T09:01:38;0.40;;;0.08;;
81799;SDS011;71195;52.528;5.704;2023-07-31T09:04:11;1.98;;;0.08;;
81799;SDS011;71195;52.528;5.704;2023-07-31T09:06:42;0.80;;;0.20;;
81799;SDS011;71195;52.528;5.704;2023-07-31T09:09:14;0.80;;;0.00;;
81799;SDS011;71195;52.528;5.704;2023-07-31T09:11:43;0.32;;;0.03;;
81799;SDS011;71195;52.528;5.704;2023-07-31T09:14:13;0.70;;;0.10;;
81799;SDS011;71195;52.528;5.704;2023-07-31T09:16:56;0.40;;;0.10;;
81799;SDS011;71195;52.528;5.704;2023-07-31T09:19:26;0.47;;;0.00;;
81799;SDS011;71195;52.528;5.704;2023-07-31T09:21:56;0.90;;;0.05;;
81799;SDS011;71195;52.528;5.704;2023-07-31T09:24:26;0.30;;;0.10;;
81799;SDS011;71195;52.528;5.704;2023-07-31T09:26:56;0.30;;;0.00;;
81799;SDS011;71195;52.528;5.704;2023-07-31T09:29:26;0.30;;;0.20;;
81799;SDS011;71195;52.528;5.704;2023-07-31T09:31:59;0.30;;;0.00;;
81799;SDS011;71195;52.528;5.704;2023-07-31T09:34:29;0.10;;;0.00;;
81799;SDS011;71195;52.528;5.704;2023-07-31T09:37:04;0.28;;;0.00;;
81799;SDS011;71195;52.528;5.704;2023-07-31T09:39:36;0.60;;;0.00;;
81799;SDS011;71195;52.528;5.704;2023-07-31T09:42:14;0.05;;;0.00;;
81799;SDS011;71195;52.528;5.704;2023-07-31T09:44:55;0.10;;;0.10;;
81799;SDS011;71195;52.528;5.704;2023-07-31T09:47:39;1.27;;;0.00;;
81799;SDS011;71195;52.528;5.704;2023-07-31T09:50:14;0.20;;;0.00;;
81799;SDS011;71195;52.528;5.704;2023-07-31T09:52:43;0.40;;;0.00;;
81799;SDS011;71195;52.528;5.704;2023-07-31T09:55:12;0.30;;;0.00;;
81799;SDS011;71195;52.528;5.704;2023-07-31T09:57:43;0.10;;;0.00;;
81799;SDS011;71195;52.528;5.704;2023-07-31T10:00:14;0.32;;;0.17;;
81799;SDS011;71195;52.528;5.704;2023-07-31T10:05:19;1.15;;;0.03;;
81799;SDS011;71195;52.528;5.704;2023-07-31T10:07:51;0.20;;;0.00;;
81799;SDS011;71195;52.528;5.704;2023-07-31T10:10:24;0.10;;;0.00;;
81799;SDS011;71195;52.528;5.704;2023-07-31T10:12:54;0.30;;;0.00;;
81799;SDS011;71195;52.528;5.704;2023-07-31T10:15:25;0.43;;;0.00;;
81799;SDS011;71195;52.528;5.704;2023-07-31T10:17:58;0.32;;;0.20;;
81799;SDS011;71195;52.528;5.704;2023-07-31T10:20:28;0.10;;;0.10;;
81799;SDS011;71195;52.528;5.704;2023-07-31T10:22:58;0.45;;;0.00;;
81799;SDS011;71195;52.528;5.704;2023-07-31T10:25:28;0.20;;;0.15;;
81799;SDS011;71195;52.528;5.704;2023-07-31T10:27:57;0.05;;;0.00;;
81799;SDS011;71195;52.528;5.704;2023-07-31T10:30:28;1.58;;;0.10;;
81799;SDS011;71195;52.528;5.704;2023-07-31T10:33:06;0.10;;;0.00;;
81799;SDS011;71195;52.528;5.704;2023-07-31T10:35:36;0.10;;;0.00;;
81799;SDS011;71195;52.528;5.704;2023-07-31T10:38:12;1.13;;;0.25;;
81799;SDS011;71195;52.528;5.704;2023-07-31T10:40:41;0.25;;;0.00;;
81799;SDS011;71195;52.528;5.704;2023-07-31T10:43:15;0.17;;;0.10;;
81799;SDS011;71195;52.528;5.704;2023-07-31T10:45:53;0.50;;;0.00;;
81799;SDS011;71195;52.528;5.704;2023-07-31T10:48:25;1.02;;;0.10;;
81799;SDS011;71195;52.528;5.704;2023-07-31T10:51:06;1.50;;;0.03;;
81799;SDS011;71195;52.528;5.704;2023-07-31T10:53:38;0.75;;;0.28;;
81799;SDS011;71195;52.528;5.704;2023-07-31T10:56:08;0.45;;;0.10;;
81799;SDS011;71195;52.528;5.704;2023-07-31T10:58:39;0.50;;;0.20;;
81799;SDS011;71195;52.528;5.704;2023-07-31T11:01:12;0.30;;;0.08;;
81799;SDS011;71195;52.528;5.704;2023-07-31T11:03:45;1.98;;;0.20;;
81799;SDS011;71195;52.528;5.704;2023-07-31T11:06:15;1.20;;;0.17;;
81799;SDS011;71195;52.528;5.704;2023-07-31T11:08:45;1.95;;;0.22;;
81799;SDS011;71195;52.528;5.704;2023-07-31T11:11:15;1.88;;;0.20;;
81799;SDS011;71195;52.528;5.704;2023-07-31T11:13:46;2.05;;;0.15;;
81799;SDS011;71195;52.528;5.704;2023-07-31T11:18:50;2.25;;;0.25;;
81799;SDS011;71195;52.528;5.704;2023-07-31T11:21:22;0.90;;;0.20;;
81799;SDS011;71195;52.528;5.704;2023-07-31T11:23:50;4.40;;;0.32;;
81799;SDS011;71195;52.528;5.704;2023-07-31T11:26:20;4.90;;;0.55;;
81799;SDS011;71195;52.528;5.704;2023-07-31T11:28:49;2.13;;;0.10;;
81799;SDS011;71195;52.528;5.704;2023-07-31T11:31:19;2.67;;;0.32;;
81799;SDS011;71195;52.528;5.704;2023-07-31T11:33:51;3.25;;;0.50;;
81799;SDS011;71195;52.528;5.704;2023-07-31T11:36:33;6.40;;;0.88;;
81799;SDS011;71195;52.528;5.704;2023-07-31T11:39:06;4.45;;;0.75;;
81799;SDS011;71195;52.528;5.704;2023-07-31T11:41:40;4.03;;;0.60;;
81799;SDS011;71195;52.528;5.704;2023-07-31T11:44:09;2.92;;;0.40;;
81799;SDS011;71195;52.528;5.704;2023-07-31T11:46:38;2.70;;;0.60;;
81799;SDS011;71195;52.528;5.704;2023-07-31T11:49:10;6.43;;;0.57;;
81799;SDS011;71195;52.528;5.704;2023-07-31T11:51:40;3.97;;;0.32;;
81799;SDS011;71195;52.528;5.704;2023-07-31T11:54:09;3.00;;;0.38;;
81799;SDS011;71195;52.528;5.704;2023-07-31T11:56:39;6.00;;;0.50;;
81799;SDS011;71195;52.528;5.704;2023-07-31T11:59:08;4.35;;;0.40;;
81799;SDS011;71195;52.528;5.704;2023-07-31T12:01:38;3.72;;;0.47;;
81799;SDS011;71195;52.528;5.704;2023-07-31T12:04:11;3.70;;;0.25;;
81799;SDS011;71195;52.528;5.704;2023-07-31T12:09:09;3.95;;;0.50;;
81799;SDS011;71195;52.528;5.704;2023-07-31T12:11:44;4.50;;;0.52;;
81799;SDS011;71195;52.528;5.704;2023-07-31T12:14:20;5.53;;;0.55;;
81799;SDS011;71195;52.528;5.704;2023-07-31T12:16:54;3.42;;;0.38;;
81799;SDS011;71195;52.528;5.704;2023-07-31T12:19:27;3.10;;;0.65;;
81799;SDS011;71195;52.528;5.704;2023-07-31T12:21:56;2.03;;;0.35;;
81799;SDS011;71195;52.528;5.704;2023-07-31T12:24:26;3.90;;;0.63;;
81799;SDS011;71195;52.528;5.704;2023-07-31T12:26:56;1.88;;;0.20;;
81799;SDS011;71195;52.528;5.704;2023-07-31T12:29:33;2.80;;;0.30;;
81799;SDS011;71195;52.528;5.704;2023-07-31T12:34:41;5.38;;;0.70;;
81799;SDS011;71195;52.528;5.704;2023-07-31T12:37:11;3.20;;;0.30;;
81799;SDS011;71195;52.528;5.704;2023-07-31T12:39:40;3.15;;;0.43;;
81799;SDS011;71195;52.528;5.704;2023-07-31T12:42:10;2.13;;;0.30;;
81799;SDS011;71195;52.528;5.704;2023-07-31T12:44:39;3.13;;;0.70;;
81799;SDS011;71195;52.528;5.704;2023-07-31T12:47:08;1.63;;;0.45;;
81799;SDS011;71195;52.528;5.704;2023-07-31T12:49:40;4.45;;;0.52;;
81799;SDS011;71195;52.528;5.704;2023-07-31T12:52:09;2.88;;;0.43;;
81799;SDS011;71195;52.528;5.704;2023-07-31T12:54:38;3.42;;;0.60;;
81799;SDS011;71195;52.528;5.704;2023-07-31T12:57:07;1.80;;;0.20;;
81799;SDS011;71195;52.528;5.704;2023-07-31T12:59:37;0.95;;;0.30;;
81799;SDS011;71195;52.528;5.704;2023-07-31T13:02:06;2.00;;;0.32;;
81799;SDS011;71195;52.528;5.704;2023-07-31T13:04:35;4.82;;;0.70;;
81799;SDS011;71195;52.528;5.704;2023-07-31T13:07:07;3.03;;;0.40;;
81799;SDS011;71195;52.528;5.704;2023-07-31T13:09:37;4.00;;;0.50;;
81799;SDS011;71195;52.528;5.704;2023-07-31T13:12:06;6.30;;;0.77;;
81799;SDS011;71195;52.528;5.704;2023-07-31T13:14:36;3.58;;;0.30;;
81799;SDS011;71195;52.528;5.704;2023-07-31T13:17:05;3.17;;;1.42;;
81799;SDS011;71195;52.528;5.704;2023-07-31T13:19:34;6.07;;;0.47;;
81799;SDS011;71195;52.528;5.704;2023-07-31T13:22:04;2.85;;;0.45;;
81799;SDS011;71195;52.528;5.704;2023-07-31T13:24:36;6.85;;;0.82;;
81799;SDS011;71195;52.528;5.704;2023-07-31T13:27:05;3.58;;;0.77;;
81799;SDS011;71195;52.528;5.704;2023-07-31T13:29:34;3.30;;;0.30;;
81799;SDS011;71195;52.528;5.704;2023-07-31T13:32:04;3.20;;;0.45;;
81799;SDS011;71195;52.528;5.704;2023-07-31T13:34:33;4.30;;;0.45;;
81799;SDS011;71195;52.528;5.704;2023-07-31T13:37:03;2.58;;;0.40;;
81799;SDS011;71195;52.528;5.704;2023-07-31T13:39:35;4.75;;;0.65;;
81799;SDS011;71195;52.528;5.704;2023-07-31T13:44:37;3.50;;;0.65;;
81799;SDS011;71195;52.528;5.704;2023-07-31T13:47:07;2.38;;;0.47;;
81799;SDS011;71195;52.528;5.704;2023-07-31T13:49:37;3.58;;;0.40;;
81799;SDS011;71195;52.528;5.704;2023-07-31T13:52:07;3.67;;;0.60;;
81799;SDS011;71195;52.528;5.704;2023-07-31T13:54:39;2.08;;;0.52;;
81799;SDS011;71195;52.528;5.704;2023-07-31T13:57:08;4.15;;;0.52;;
81799;SDS011;71195;52.528;5.704;2023-07-31T13:59:37;2.95;;;0.20;;
81799;SDS011;71195;52.528;5.704;2023-07-31T14:02:07;6.07;;;0.95;;
81799;SDS011;71195;52.528;5.704;2023-07-31T14:04:36;4.80;;;0.63;;
81799;SDS011;71195;52.528;5.704;2023-07-31T14:07:05;3.33;;;0.45;;
81799;SDS011;71195;52.528;5.704;2023-07-31T14:09:35;1.85;;;0.22;;
81799;SDS011;71195;52.528;5.704;2023-07-31T14:12:07;2.13;;;0.20;;
81799;SDS011;71195;52.528;5.704;2023-07-31T14:14:39;1.40;;;0.20;;
81799;SDS011;71195;52.528;5.704;2023-07-31T14:17:08;1.48;;;0.22;;
81799;SDS011;71195;52.528;5.704;2023-07-31T14:19:37;3.72;;;0.40;;
81799;SDS011;71195;52.528;5.704;2023-07-31T14:22:07;1.05;;;0.20;;
81799;SDS011;71195;52.528;5.704;2023-07-31T14:24:36;3.80;;;0.55;;
81799;SDS011;71195;52.528;5.704;2023-07-31T14:27:08;1.73;;;0.30;;
81799;SDS011;71195;52.528;5.704;2023-07-31T14:29:37;4.75;;;0.40;;
81799;SDS011;71195;52.528;5.704;2023-07-31T14:32:07;1.77;;;0.17;;
81799;SDS011;71195;52.528;5.704;2023-07-31T14:34:36;1.10;;;0.25;;
81799;SDS011;71195;52.528;5.704;2023-07-31T14:37:06;2.05;;;0.30;;
81799;SDS011;71195;52.528;5.704;2023-07-31T14:39:35;2.03;;;0.35;;
81799;SDS011;71195;52.528;5.704;2023-07-31T14:42:04;2.08;;;0.30;;
81799;SDS011;71195;52.528;5.704;2023-07-31T14:44:36;2.35;;;0.65;;
81799;SDS011;71195;52.528;5.704;2023-07-31T14:47:06;2.88;;;0.43;;
81799;SDS011;71195;52.528;5.704;2023-07-31T14:49:35;2.38;;;0.40;;
81799;SDS011;71195;52.528;5.704;2023-07-31T14:52:04;2.53;;;0.50;;
81799;SDS011;71195;52.528;5.704;2023-07-31T14:54:34;1.95;;;0.50;;
81799;SDS011;71195;52.528;5.704;2023-07-31T14:57:03;1.42;;;0.30;;
81799;SDS011;71195;52.528;5.704;2023-07-31T14:59:36;2.47;;;0.22;;
81799;SDS011;71195;52.528;5.704;2023-07-31T15:02:05;0.50;;;0.10;;
81799;SDS011;71195;52.528;5.704;2023-07-31T15:04:36;0.90;;;0.13;;
81799;SDS011;71195;52.528;5.704;2023-07-31T15:07:06;1.75;;;0.40;;
81799;SDS011;71195;52.528;5.704;2023-07-31T15:09:35;0.68;;;0.00;;
81799;SDS011;71195;52.528;5.704;2023-07-31T15:12:04;0.95;;;0.10;;
81799;SDS011;71195;52.528;5.704;2023-07-31T15:14:37;1.27;;;0.25;;
81799;SDS011;71195;52.528;5.704;2023-07-31T15:17:06;1.00;;;0.22;;
81799;SDS011;71195;52.528;5.704;2023-07-31T15:19:35;0.85;;;0.10;;
81799;SDS011;71195;52.528;5.704;2023-07-31T15:22:04;1.33;;;0.05;;
81799;SDS011;71195;52.528;5.704;2023-07-31T15:24:34;1.27;;;0.10;;
81799;SDS011;71195;52.528;5.704;2023-07-31T15:27:03;1.45;;;0.10;;